Time;durP1;ratioP1;P1;durP2;ratioP2;P2;SDS_P1;SDS_P2;PMS_P1;PMS_P2;Temp;Humidity;BMP_temperature;BMP_pressure;BME280_temperature;BME280_humidity;BME280_pressure;Samples;Min_cycle;Max_cycle;Signal;HPM_P1;HPM_P2
2024/01/12 00:00:28;;;;;;;29.63;16.13;;;-1.80;99.90;;;;;;5071663;28;20199;-83
2024/01/12 00:02:53;;;;;;;26.50;15.40;;;-1.70;99.90;;;;;;5072495;28;20190;-83
2024/01/12 00:05:19;;;;;;;30.43;16.10;;;-1.70;99.90;;;;;;5071145;28;20179;-83
2024/01/12 00:07:45;;;;;;;27.00;15.83;;;-1.70;99.90;;;;;;5072216;28;20176;-83
2024/01/12 00:10:10;;;;;;;25.73;15.17;;;-1.70;99.90;;;;;;5070529;28;20198;-83
2024/01/12 00:12:36;;;;;;;24.23;14.87;;;-1.70;99.90;;;;;;5071058;28;20194;-83
2024/01/12 00:15:03;;;;;;;25.67;15.23;;;-1.70;99.90;;;;;;5070633;28;20616;-83
2024/01/12 00:17:28;;;;;;;26.20;14.67;;;-1.70;99.90;;;;;;5072219;28;20680;-83
2024/01/12 00:19:54;;;;;;;23.83;13.77;;;-1.70;99.90;;;;;;5070895;28;20229;-83
2024/01/12 00:22:20;;;;;;;23.43;11.90;;;-1.60;99.90;;;;;;5070674;28;20167;-82
2024/01/12 00:24:45;;;;;;;20.93;13.10;;;-1.50;99.90;;;;;;5072357;28;20214;-83
2024/01/12 00:27:11;;;;;;;22.53;13.27;;;-1.40;99.90;;;;;;5071993;28;20195;-82
2024/01/12 00:29:37;;;;;;;21.97;12.80;;;-1.40;99.90;;;;;;5070814;28;20176;-83
2024/01/12 00:32:05;;;;;;;22.17;13.67;;;-1.40;99.90;;;;;;5073334;28;20162;-82
2024/01/12 00:34:30;;;;;;;22.60;12.90;;;-1.40;99.90;;;;;;5074710;28;20206;-83
2024/01/12 00:36:56;;;;;;;19.73;12.23;;;-1.30;99.90;;;;;;5074800;28;20183;-83
2024/01/12 00:39:21;;;;;;;21.80;12.33;;;-1.30;99.90;;;;;;5075940;28;20180;-83
2024/01/12 00:41:50;;;;;;;20.77;12.13;;;-1.30;99.90;;;;;;5075614;28;20170;-84
2024/01/12 00:44:17;;;;;;;20.80;12.63;;;-1.30;99.90;;;;;;5075794;28;20320;-83
2024/01/12 00:46:50;;;;;;;22.73;12.70;;;-1.30;99.90;;;;;;5076135;28;20290;-83
2024/01/12 00:49:19;;;;;;;22.60;11.57;;;-1.30;99.90;;;;;;5075664;28;20204;-83
2024/01/12 00:51:45;;;;;;;19.83;12.20;;;-1.30;99.90;;;;;;5075472;28;20222;-83
2024/01/12 00:54:10;;;;;;;17.83;10.87;;;-1.30;99.90;;;;;;5075796;28;20208;-83
2024/01/12 00:56:36;;;;;;;16.10;9.60;;;-1.30;99.90;;;;;;5075429;28;20235;-83
2024/01/12 00:59:02;;;;;;;16.63;9.43;;;-1.20;99.90;;;;;;5074399;28;20644;-83
2024/01/12 01:01:28;;;;;;;15.47;9.43;;;-1.20;99.90;;;;;;5073794;28;20245;-82
2024/01/12 01:03:54;;;;;;;14.30;9.03;;;-1.20;99.90;;;;;;5074247;28;20184;-83
2024/01/12 01:06:19;;;;;;;16.67;9.80;;;-1.10;99.90;;;;;;5074270;28;20213;-82
2024/01/12 01:08:46;;;;;;;17.60;9.43;;;-1.10;99.90;;;;;;5075252;28;20230;-83
2024/01/12 01:11:11;;;;;;;16.83;9.97;;;-1.10;99.90;;;;;;5073636;28;20795;-83
2024/01/12 01:13:38;;;;;;;18.23;10.07;;;-1.10;99.90;;;;;;5075511;28;20297;-83
2024/01/12 01:16:04;;;;;;;17.53;10.77;;;-1.10;99.90;;;;;;5073750;28;20215;-82
2024/01/12 01:18:30;;;;;;;15.87;9.20;;;-1.10;99.90;;;;;;5073895;28;20207;-83
2024/01/12 01:20:57;;;;;;;13.17;7.63;;;-1.10;99.90;;;;;;5075074;28;20200;-83
2024/01/12 01:23:22;;;;;;;13.33;7.87;;;-1.10;99.90;;;;;;5075722;28;20653;-84
2024/01/12 01:25:48;;;;;;;15.03;8.10;;;-1.10;99.90;;;;;;5073872;28;20179;-83
2024/01/12 01:28:14;;;;;;;13.43;8.30;;;-1.00;99.90;;;;;;5075367;28;20191;-83
2024/01/12 01:30:39;;;;;;;14.40;8.07;;;-1.00;99.90;;;;;;5073553;28;20200;-83
2024/01/12 01:33:05;;;;;;;16.10;8.07;;;-1.00;99.90;;;;;;5075075;28;20273;-83
2024/01/12 01:35:30;;;;;;;12.37;8.07;;;-1.00;99.90;;;;;;5073716;28;20180;-83
2024/01/12 01:37:56;;;;;;;12.03;7.10;;;-0.90;99.90;;;;;;5073634;28;20618;-83
2024/01/12 01:40:22;;;;;;;10.87;6.57;;;-0.90;99.90;;;;;;5074372;28;20570;-83
2024/01/12 01:42:48;;;;;;;11.73;6.83;;;-0.90;99.90;;;;;;5074282;28;20175;-83
2024/01/12 01:45:14;;;;;;;13.10;7.70;;;-0.90;99.90;;;;;;5075016;28;20191;-83
2024/01/12 01:47:41;;;;;;;14.37;8.67;;;-0.90;99.90;;;;;;5073786;28;20183;-83
2024/01/12 01:50:08;;;;;;;14.47;8.23;;;-0.90;99.90;;;;;;5072924;28;20710;-84
2024/01/12 01:52:34;;;;;;;17.97;9.60;;;-0.90;99.90;;;;;;5073312;28;20186;-83
2024/01/12 01:54:59;;;;;;;17.67;9.23;;;-0.90;99.90;;;;;;5073124;28;20181;-83
2024/01/12 01:57:27;;;;;;;15.87;9.67;;;-0.90;99.90;;;;;;5073251;28;20267;-84
2024/01/12 01:59:54;;;;;;;17.23;10.57;;;-0.90;99.90;;;;;;5074433;28;20200;-83
2024/01/12 02:02:20;;;;;;;17.23;9.93;;;-0.90;99.90;;;;;;5074310;28;20176;-83
2024/01/12 02:04:45;;;;;;;16.67;10.17;;;-0.90;99.90;;;;;;5074453;28;20191;-83
2024/01/12 02:07:11;;;;;;;16.23;10.30;;;-0.90;99.90;;;;;;5074311;28;20188;-83
2024/01/12 02:09:37;;;;;;;17.33;10.17;;;-0.90;99.90;;;;;;5072643;28;20532;-82
2024/01/12 02:12:05;;;;;;;18.10;10.40;;;-0.90;99.90;;;;;;5073128;28;20213;-83
2024/01/12 02:14:31;;;;;;;19.10;10.80;;;-0.90;99.90;;;;;;5072859;28;20687;-83
2024/01/12 02:16:57;;;;;;;16.87;10.03;;;-0.90;99.90;;;;;;5074143;28;20208;-82
2024/01/12 02:19:22;;;;;;;17.60;9.60;;;-0.90;99.90;;;;;;5072688;28;20172;-83
2024/01/12 02:21:48;;;;;;;18.43;9.73;;;-0.90;99.90;;;;;;5073932;28;20172;-82
2024/01/12 02:24:13;;;;;;;17.40;10.20;;;-0.90;99.90;;;;;;5073886;28;20176;-83
2024/01/12 02:26:39;;;;;;;16.70;10.20;;;-0.90;99.90;;;;;;5072870;28;20233;-83
2024/01/12 02:29:05;;;;;;;16.30;9.23;;;-0.90;99.90;;;;;;5074238;28;20229;-83
2024/01/12 02:31:31;;;;;;;15.57;9.37;;;-0.90;99.90;;;;;;5072002;28;20207;-83
2024/01/12 02:33:56;;;;;;;14.53;8.67;;;-0.80;99.90;;;;;;5072475;28;20579;-83
2024/01/12 02:36:28;;;;;;;14.03;8.60;;;-0.80;99.90;;;;;;5073676;28;20249;-83
2024/01/12 02:38:55;;;;;;;15.57;9.40;;;-0.80;99.90;;;;;;5072756;28;20556;-83
2024/01/12 02:41:20;;;;;;;14.03;8.93;;;-0.80;99.90;;;;;;5072002;28;20200;-82
2024/01/12 02:43:47;;;;;;;17.97;9.07;;;-0.80;99.90;;;;;;5073648;28;20214;-83
2024/01/12 02:46:12;;;;;;;13.23;8.40;;;-0.80;99.90;;;;;;5073495;28;20230;-83
2024/01/12 02:48:38;;;;;;;9.57;6.53;;;-0.80;99.90;;;;;;5072285;28;20184;-83
2024/01/12 02:51:04;;;;;;;10.77;5.73;;;-0.80;99.90;;;;;;5067558;28;20695;-83
2024/01/12 02:53:30;;;;;;;9.77;5.90;;;-0.80;99.90;;;;;;5072334;28;20637;-83
2024/01/12 02:55:56;;;;;;;11.30;6.50;;;-0.80;99.90;;;;;;5070968;28;20234;-82
2024/01/12 02:58:21;;;;;;;11.23;6.33;;;-0.80;99.90;;;;;;5072055;28;20641;-83
2024/01/12 03:00:47;;;;;;;10.43;6.20;;;-0.80;99.90;;;;;;5071497;28;20196;-82
2024/01/12 03:03:12;;;;;;;9.13;6.07;;;-0.80;99.90;;;;;;5071847;28;20180;-83
2024/01/12 03:05:38;;;;;;;9.13;6.23;;;-0.80;99.90;;;;;;5073255;28;20180;-83
2024/01/12 03:08:04;;;;;;;10.20;6.10;;;-0.80;99.90;;;;;;5073111;28;20188;-83
2024/01/12 03:10:29;;;;;;;9.67;6.10;;;-0.80;99.90;;;;;;5071271;28;20196;-83
2024/01/12 03:12:55;;;;;;;9.17;5.40;;;-0.80;99.90;;;;;;5071752;28;20565;-83
2024/01/12 03:15:21;;;;;;;9.43;5.63;;;-0.70;99.90;;;;;;5073391;28;20183;-82
2024/01/12 03:17:46;;;;;;;7.17;4.97;;;-0.70;99.90;;;;;;5071708;28;20178;-82
2024/01/12 03:20:12;;;;;;;7.40;4.87;;;-0.80;99.90;;;;;;5071034;28;20199;-83
2024/01/12 03:22:37;;;;;;;8.43;5.07;;;-0.80;99.90;;;;;;5071608;28;20211;-83
2024/01/12 03:25:03;;;;;;;9.07;5.00;;;-0.70;99.90;;;;;;5071556;28;20203;-83
2024/01/12 03:27:29;;;;;;;7.37;4.70;;;-0.70;99.90;;;;;;5072914;28;20181;-83
2024/01/12 03:29:54;;;;;;;6.73;4.33;;;-0.80;99.90;;;;;;5071343;28;20192;-82
2024/01/12 03:32:21;;;;;;;7.57;4.80;;;-0.80;99.90;;;;;;5071127;28;20237;-84
2024/01/12 03:34:46;;;;;;;8.10;5.03;;;-0.80;99.90;;;;;;5073040;28;20204;-83
2024/01/12 03:37:12;;;;;;;7.77;5.00;;;-0.80;99.90;;;;;;5072393;28;20172;-83
2024/01/12 03:39:38;;;;;;;5.53;3.90;;;-0.70;99.90;;;;;;5072601;28;20176;-83
2024/01/12 03:42:04;;;;;;;6.93;4.57;;;-0.70;99.90;;;;;;5072241;28;20599;-83
2024/01/12 03:44:29;;;;;;;8.17;5.03;;;-0.70;99.90;;;;;;5072521;28;20180;-82
2024/01/12 03:46:55;;;;;;;6.90;4.50;;;-0.70;99.90;;;;;;5072456;28;20172;-82
2024/01/12 03:49:22;;;;;;;7.17;4.70;;;-0.70;99.90;;;;;;5070967;28;20270;-82
2024/01/12 03:51:53;;;;;;;7.97;4.87;;;-0.70;99.90;;;;;;5072107;28;20200;-82
2024/01/12 03:54:22;;;;;;;8.50;4.87;;;-0.70;99.90;;;;;;5072402;28;20204;-83
2024/01/12 03:56:48;;;;;;;8.70;4.87;;;-0.70;99.90;;;;;;5070931;28;20195;-83
2024/01/12 03:59:14;;;;;;;8.20;4.47;;;-0.70;99.90;;;;;;5072335;28;20184;-83
2024/01/12 04:01:44;;;;;;;8.00;5.33;;;-0.70;99.90;;;;;;5071806;28;20223;-83
2024/01/12 04:04:09;;;;;;;7.23;5.10;;;-0.70;99.90;;;;;;5072118;28;20208;-83
2024/01/12 04:06:35;;;;;;;9.17;5.50;;;-0.70;99.90;;;;;;5071139;28;20200;-83
2024/01/12 04:09:00;;;;;;;8.37;5.47;;;-0.70;99.90;;;;;;5071267;28;20181;-83
2024/01/12 04:11:26;;;;;;;8.73;5.20;;;-0.70;99.90;;;;;;5071777;28;20252;-82
2024/01/12 04:13:52;;;;;;;8.27;4.93;;;-0.60;99.90;;;;;;5072272;28;20678;-83
2024/01/12 04:16:18;;;;;;;7.87;4.80;;;-0.60;99.90;;;;;;5072085;28;20175;-82
2024/01/12 04:18:43;;;;;;;10.33;5.87;;;-0.70;99.90;;;;;;5070962;28;20565;-83
2024/01/12 04:21:09;;;;;;;9.60;5.13;;;-0.60;99.90;;;;;;5070622;28;20192;-83
2024/01/12 04:23:35;;;;;;;9.10;5.33;;;-0.60;99.90;;;;;;5072194;28;20183;-83
2024/01/12 04:26:00;;;;;;;8.70;5.30;;;-0.60;99.90;;;;;;5072309;28;20263;-82
2024/01/12 04:28:26;;;;;;;8.53;5.20;;;-0.60;99.90;;;;;;5070662;28;20593;-83
2024/01/12 04:30:51;;;;;;;7.30;4.70;;;-0.60;99.90;;;;;;5070283;28;20189;-83
2024/01/12 04:33:17;;;;;;;8.37;5.23;;;-0.60;99.90;;;;;;5070631;28;20292;-82
2024/01/12 04:35:42;;;;;;;8.97;5.03;;;-0.60;99.90;;;;;;5070560;28;20639;-82
2024/01/12 04:38:11;;;;;;;10.33;5.83;;;-0.60;99.90;;;;;;5070594;28;20191;-83
2024/01/12 04:40:38;;;;;;;9.87;5.10;;;-0.60;99.90;;;;;;5070015;28;20720;-83
2024/01/12 04:43:04;;;;;;;9.37;5.77;;;-0.60;99.90;;;;;;5071991;28;20180;-83
2024/01/12 04:45:29;;;;;;;8.70;4.97;;;-0.60;99.90;;;;;;5071795;28;20267;-83
2024/01/12 04:47:56;;;;;;;8.43;5.10;;;-0.50;99.90;;;;;;5070489;28;20177;-83
2024/01/12 04:50:21;;;;;;;9.23;5.07;;;-0.50;99.90;;;;;;5094098;22;20671;-83
2024/01/12 04:52:48;;;;;;;8.27;5.13;;;-0.50;99.90;;;;;;5074798;28;20742;-83
2024/01/12 04:55:13;;;;;;;8.87;4.97;;;-0.50;99.90;;;;;;5074579;28;20172;-83
2024/01/12 04:57:39;;;;;;;8.73;5.57;;;-0.50;99.90;;;;;;5074266;28;20206;-83
2024/01/12 05:00:05;;;;;;;9.00;5.30;;;-0.50;99.90;;;;;;5073337;28;20310;-83
2024/01/12 05:02:31;;;;;;;8.53;5.40;;;-0.50;99.90;;;;;;5074579;28;20179;-83
2024/01/12 05:04:57;;;;;;;8.40;5.20;;;-0.50;99.90;;;;;;5076421;28;20177;-84
2024/01/12 05:07:22;;;;;;;8.83;5.17;;;-0.50;99.90;;;;;;5075375;28;20180;-84
2024/01/12 05:09:48;;;;;;;8.10;5.13;;;-0.50;99.90;;;;;;5073900;28;20194;-83
2024/01/12 05:12:14;;;;;;;8.10;5.10;;;-0.50;99.90;;;;;;5075173;28;20263;-83
2024/01/12 05:14:40;;;;;;;10.17;5.60;;;-0.50;99.90;;;;;;5074061;28;20211;-83
2024/01/12 05:17:05;;;;;;;7.90;4.70;;;-0.50;99.90;;;;;;5076629;28;20173;-83
2024/01/12 05:19:31;;;;;;;10.00;5.70;;;-0.50;99.90;;;;;;5078776;28;20175;-83
2024/01/12 05:21:57;;;;;;;10.80;5.53;;;-0.50;99.90;;;;;;5077547;28;20189;-83
2024/01/12 05:24:22;;;;;;;8.87;5.00;;;-0.50;99.90;;;;;;5079163;28;20602;-83
2024/01/12 05:26:48;;;;;;;8.67;5.57;;;-0.50;99.90;;;;;;5078672;28;20169;-84
2024/01/12 05:29:14;;;;;;;8.80;5.40;;;-0.60;99.90;;;;;;5078955;28;20173;-84
2024/01/12 05:31:42;;;;;;;8.90;5.47;;;-0.50;99.90;;;;;;5077055;28;20203;-83
2024/01/12 05:34:08;;;;;;;7.97;5.00;;;-0.50;99.90;;;;;;5077743;28;20271;-83
2024/01/12 05:36:33;;;;;;;7.83;5.10;;;-0.50;99.90;;;;;;5078094;28;20245;-84
2024/01/12 05:38:59;;;;;;;7.67;4.70;;;-0.50;99.90;;;;;;5079303;28;20203;-84
2024/01/12 05:41:24;;;;;;;9.70;5.20;;;-0.50;99.90;;;;;;5077338;28;20203;-86
2024/01/12 05:43:50;;;;;;;9.07;4.83;;;-0.60;99.90;;;;;;5078475;28;20247;-83
2024/01/12 05:46:17;;;;;;;8.67;4.90;;;-0.50;99.90;;;;;;5080074;28;20211;-83
2024/01/12 05:48:43;;;;;;;7.20;4.37;;;-0.50;99.90;;;;;;5079968;28;20211;-83
2024/01/12 05:51:11;;;;;;;9.13;5.50;;;-0.50;99.90;;;;;;5078409;28;20220;-84
2024/01/12 05:53:36;;;;;;;9.50;5.47;;;-0.20;99.90;;;;;;5077341;28;20225;-84
2024/01/12 05:56:02;;;;;;;8.10;5.47;;;0.30;99.90;;;;;;5076649;28;20602;-85
2024/01/12 05:58:28;;;;;;;7.27;4.87;;;0.70;99.90;;;;;;5079579;28;20188;-86
2024/01/12 06:00:53;;;;;;;7.50;4.67;;;1.00;99.90;;;;;;5077619;28;20270;-84
2024/01/12 06:03:19;;;;;;;8.13;4.70;;;0.90;99.90;;;;;;5079744;28;20660;-82
2024/01/12 06:05:45;;;;;;;8.87;5.40;;;0.60;99.90;;;;;;5078161;28;20561;-82
2024/01/12 06:08:11;;;;;;;7.43;4.60;;;0.40;99.90;;;;;;5081630;28;20180;-82
2024/01/12 06:10:36;;;;;;;8.53;5.10;;;0.10;99.90;;;;;;5079464;28;20200;-81
2024/01/12 06:13:03;;;;;;;7.77;5.00;;;-0.10;99.90;;;;;;5079282;28;20201;-84
2024/01/12 06:15:28;;;;;;;7.67;4.80;;;-0.20;99.90;;;;;;5079362;28;20653;-80
2024/01/12 06:17:54;;;;;;;6.40;4.67;;;-0.30;99.90;;;;;;5083783;28;20260;-80
2024/01/12 06:20:20;;;;;;;7.13;4.90;;;-0.30;99.90;;;;;;5083365;28;20193;-80
2024/01/12 06:22:45;;;;;;;7.33;4.67;;;-0.30;99.90;;;;;;5082701;28;20207;-81
2024/01/12 06:25:11;;;;;;;6.70;4.70;;;-0.40;99.90;;;;;;5080997;28;20173;-81
2024/01/12 06:27:36;;;;;;;8.47;5.37;;;-0.40;99.90;;;;;;5081524;28;20173;-80
2024/01/12 06:30:03;;;;;;;7.20;4.23;;;-0.40;99.90;;;;;;5080909;28;20169;-80
2024/01/12 06:32:28;;;;;;;8.33;4.90;;;-0.50;99.90;;;;;;5081612;28;20177;-82
2024/01/12 06:34:54;;;;;;;8.73;5.67;;;-0.50;99.90;;;;;;5082848;28;20286;-82
2024/01/12 06:37:20;;;;;;;8.10;5.77;;;-0.60;99.90;;;;;;5080699;28;20179;-80
2024/01/12 06:39:45;;;;;;;8.90;5.37;;;-0.60;99.90;;;;;;5078213;28;20180;-85
2024/01/12 06:42:11;;;;;;;10.63;5.83;;;-0.60;99.90;;;;;;5075681;28;20260;-85
2024/01/12 06:44:40;;;;;;;9.00;5.80;;;-0.60;99.90;;;;;;5076022;28;20219;-83
2024/01/12 06:47:07;;;;;;;17.50;11.23;;;-0.60;99.90;;;;;;5075214;28;20638;-85
2024/01/12 06:49:33;;;;;;;11.50;7.10;;;-0.60;99.90;;;;;;5076858;28;20169;-84
2024/01/12 06:52:00;;;;;;;13.90;9.23;;;-0.60;99.90;;;;;;5075904;28;20307;-84
2024/01/12 06:54:25;;;;;;;10.50;7.07;;;-0.60;99.90;;;;;;5075681;28;20263;-87
2024/01/12 06:56:52;;;;;;;10.83;6.27;;;-0.60;99.90;;;;;;5074748;28;20188;-83
2024/01/12 06:59:18;;;;;;;13.83;7.10;;;-0.60;99.90;;;;;;5076377;28;20172;-85
2024/01/12 07:01:44;;;;;;;9.20;5.63;;;-0.60;99.90;;;;;;5078036;28;20196;-85
2024/01/12 07:04:09;;;;;;;9.60;5.53;;;-0.50;99.90;;;;;;5078336;28;20173;-85
2024/01/12 07:06:35;;;;;;;7.77;5.20;;;-0.60;99.90;;;;;;5074903;28;20180;-82
2024/01/12 07:09:01;;;;;;;7.60;5.00;;;-0.50;99.90;;;;;;5076286;28;20176;-84
2024/01/12 07:11:26;;;;;;;7.97;5.17;;;-0.60;99.90;;;;;;5073971;28;20222;-82
2024/01/12 07:13:52;;;;;;;10.27;5.57;;;-0.70;99.90;;;;;;5075961;28;20208;-82
2024/01/12 07:16:17;;;;;;;9.80;5.60;;;-0.50;99.90;;;;;;5076498;28;20180;-82
2024/01/12 07:18:43;;;;;;;11.50;6.47;;;-0.60;99.90;;;;;;5074843;28;20254;-82
2024/01/12 07:21:09;;;;;;;13.10;7.20;;;-0.60;99.90;;;;;;5074943;28;20195;-83
2024/01/12 07:23:34;;;;;;;10.80;6.20;;;-0.60;99.90;;;;;;5075808;28;20636;-84
2024/01/12 07:26:01;;;;;;;12.10;7.47;;;-0.50;99.90;;;;;;5075526;28;20192;-85
2024/01/12 07:28:26;;;;;;;11.43;7.23;;;-0.50;99.90;;;;;;5071917;28;20192;-87
2024/01/12 07:30:53;;;;;;;21.43;11.00;;;-0.50;99.90;;;;;;5071729;28;20204;-84
2024/01/12 07:33:22;;;;;;;15.83;9.23;;;-0.50;99.90;;;;;;5073220;28;20212;-86
2024/01/12 07:35:48;;;;;;;14.60;7.10;;;-0.50;99.90;;;;;;5076324;28;20173;-83
2024/01/12 07:38:13;;;;;;;13.67;7.80;;;-0.50;99.90;;;;;;5075855;28;20172;-84
2024/01/12 07:40:39;;;;;;;11.97;6.60;;;-0.50;99.90;;;;;;5073607;28;20569;-84
2024/01/12 07:43:04;;;;;;;7.53;4.93;;;-0.50;99.90;;;;;;5076984;28;20180;-85
2024/01/12 07:45:30;;;;;;;8.83;4.97;;;-0.50;99.90;;;;;;5078584;28;20176;-83
2024/01/12 07:47:55;;;;;;;7.57;5.00;;;-0.50;99.90;;;;;;5077152;28;20209;-84
2024/01/12 07:50:21;;;;;;;10.47;5.63;;;-0.50;99.90;;;;;;5074390;28;20213;-85
2024/01/12 07:52:46;;;;;;;10.17;6.27;;;-0.60;99.90;;;;;;5070794;28;20245;-85
2024/01/12 07:55:12;;;;;;;9.17;5.03;;;-0.60;99.90;;;;;;5086490;28;20208;-85
2024/01/12 07:57:38;;;;;;;9.93;5.50;;;-0.60;99.90;;;;;;5077430;28;20208;-85
2024/01/12 08:00:05;;;;;;;8.83;5.13;;;-0.50;99.90;;;;;;5077241;28;20192;-85
2024/01/12 08:02:30;;;;;;;8.60;4.97;;;-0.50;99.90;;;;;;5079991;28;20180;-85
2024/01/12 08:04:56;;;;;;;7.67;4.77;;;-0.60;99.90;;;;;;5074265;28;20180;-84
2024/01/12 08:07:21;;;;;;;7.90;5.03;;;-0.60;99.90;;;;;;5074529;28;20183;-86
2024/01/12 08:09:47;;;;;;;7.83;4.47;;;-0.60;99.90;;;;;;5078387;28;20192;-85
2024/01/12 08:12:13;;;;;;;7.80;5.13;;;-0.50;99.90;;;;;;5078619;28;20560;-84
2024/01/12 08:14:38;;;;;;;8.70;4.87;;;-0.50;99.90;;;;;;5078901;28;20203;-85
2024/01/12 08:17:04;;;;;;;9.33;4.83;;;-0.50;99.90;;;;;;5078942;28;20173;-84
2024/01/12 08:19:30;;;;;;;8.10;4.50;;;-0.50;99.90;;;;;;5078038;28;20271;-84
2024/01/12 08:21:55;;;;;;;9.00;4.60;;;-0.50;99.90;;;;;;5075989;28;20276;-82
2024/01/12 08:24:21;;;;;;;8.77;4.67;;;-0.50;99.90;;;;;;5073457;28;20181;-82
2024/01/12 08:26:46;;;;;;;6.23;4.17;;;-0.50;99.90;;;;;;5075514;28;20188;-83
2024/01/12 08:29:12;;;;;;;6.47;4.67;;;-0.50;99.90;;;;;;5075869;28;20184;-82
2024/01/12 08:31:38;;;;;;;8.40;5.00;;;-0.50;99.90;;;;;;5075463;28;20288;-83
2024/01/12 08:34:03;;;;;;;7.00;4.70;;;-0.50;99.90;;;;;;5074042;28;20212;-82
2024/01/12 08:36:29;;;;;;;7.40;4.20;;;-0.50;99.90;;;;;;5074766;28;20194;-83
2024/01/12 08:38:54;;;;;;;9.70;5.63;;;-0.50;99.90;;;;;;5075964;28;20267;-83
2024/01/12 08:41:20;;;;;;;9.27;7.00;;;-0.50;99.90;;;;;;5075581;28;20215;-82
2024/01/12 08:43:45;;;;;;;9.43;5.57;;;-0.50;99.90;;;;;;5075106;28;20176;-83
2024/01/12 08:46:11;;;;;;;7.90;4.67;;;-0.50;99.90;;;;;;5076079;28;20176;-83
2024/01/12 08:48:36;;;;;;;12.17;7.37;;;-0.50;99.90;;;;;;5078082;28;20177;-85
2024/01/12 08:51:02;;;;;;;9.20;5.43;;;-0.40;99.90;;;;;;5079681;28;20223;-85
2024/01/12 08:53:28;;;;;;;10.93;6.60;;;-0.50;99.90;;;;;;5080742;28;20212;-80
2024/01/12 08:55:54;;;;;;;10.93;6.80;;;-0.50;99.90;;;;;;5086028;28;20238;-83
2024/01/12 08:58:20;;;;;;;13.47;5.80;;;-0.50;99.90;;;;;;5083844;28;20180;-84
2024/01/12 09:00:45;;;;;;;12.07;6.53;;;-0.50;99.90;;;;;;5082419;28;20565;-84
2024/01/12 09:03:11;;;;;;;10.20;5.67;;;-0.50;99.90;;;;;;5081809;28;20179;-85
2024/01/12 09:05:36;;;;;;;13.67;7.27;;;-0.50;99.90;;;;;;5082930;28;20205;-84
2024/01/12 09:08:02;;;;;;;10.97;7.17;;;-0.50;99.90;;;;;;5082999;28;20173;-84
2024/01/12 09:10:29;;;;;;;12.83;7.27;;;-0.60;99.90;;;;;;5080153;28;20209;-84
2024/01/12 09:12:54;;;;;;;10.33;6.40;;;-0.60;99.90;;;;;;5082281;28;20658;-84
2024/01/12 09:15:20;;;;;;;12.37;6.10;;;-0.60;99.90;;;;;;5082954;28;20164;-84
2024/01/12 09:17:45;;;;;;;13.20;7.03;;;-0.50;99.90;;;;;;5081847;28;20266;-86
2024/01/12 09:20:11;;;;;;;9.30;5.43;;;-0.50;99.90;;;;;;5084862;28;20185;-84
2024/01/12 09:22:37;;;;;;;11.03;6.97;;;-0.50;99.90;;;;;;5083552;28;20613;-84
2024/01/12 09:25:03;;;;;;;9.63;5.60;;;-0.50;99.90;;;;;;5085348;28;20199;-83
2024/01/12 09:27:28;;;;;;;10.10;5.27;;;-0.40;99.90;;;;;;5083666;28;20180;-83
2024/01/12 09:29:54;;;;;;;9.40;6.03;;;-0.40;99.90;;;;;;5085671;28;20180;-84
2024/01/12 09:32:19;;;;;;;9.70;5.63;;;-0.30;99.90;;;;;;5083353;28;20176;-83
2024/01/12 09:34:45;;;;;;;8.77;4.80;;;-0.20;99.90;;;;;;5090504;28;20226;-84
2024/01/12 09:37:11;;;;;;;8.10;5.03;;;-0.20;99.90;;;;;;5081276;28;20248;-83
2024/01/12 09:39:36;;;;;;;9.53;5.70;;;-0.20;99.90;;;;;;5080536;28;20250;-81
2024/01/12 09:42:05;;;;;;;9.97;5.50;;;-0.10;99.90;;;;;;5081055;28;20189;-85
2024/01/12 09:44:38;;;;;;;9.27;5.33;;;-0.20;99.90;;;;;;5079142;28;20195;-82
2024/01/12 09:47:04;;;;;;;9.03;5.63;;;-0.10;99.90;;;;;;5076592;28;20207;-83
2024/01/12 09:49:31;;;;;;;9.60;5.30;;;-0.10;99.90;;;;;;5076707;28;20184;-83
2024/01/12 09:51:57;;;;;;;10.60;6.20;;;0.00;99.90;;;;;;5075623;28;20242;-84
2024/01/12 09:54:23;;;;;;;10.10;5.90;;;0.00;99.90;;;;;;5079336;28;20752;-83
2024/01/12 09:56:51;;;;;;;10.80;6.07;;;0.00;99.90;;;;;;5076848;28;20231;-85
2024/01/12 09:59:17;;;;;;;9.03;5.33;;;0.00;99.90;;;;;;5076730;28;20176;-82
2024/01/12 10:01:43;;;;;;;11.13;5.70;;;0.00;99.90;;;;;;5077704;28;20262;-85
2024/01/12 10:04:09;;;;;;;8.20;5.40;;;0.00;99.90;;;;;;5076727;28;20595;-83
2024/01/12 10:06:37;;;;;;;8.47;5.50;;;0.10;99.90;;;;;;5078334;28;20190;-83
2024/01/12 10:09:04;;;;;;;8.30;4.43;;;0.10;99.90;;;;;;5078511;28;20172;-85
2024/01/12 10:11:29;;;;;;;10.67;4.87;;;0.20;99.90;;;;;;5078096;28;20193;-83
2024/01/12 10:13:55;;;;;;;9.27;5.50;;;0.20;99.90;;;;;;5077489;28;20261;-87
2024/01/12 10:16:22;;;;;;;9.13;5.30;;;0.20;99.90;;;;;;5076231;28;20661;-85
2024/01/12 10:18:48;;;;;;;10.10;5.73;;;0.10;99.90;;;;;;5077127;28;20180;-86
2024/01/12 10:21:14;;;;;;;9.20;5.30;;;0.20;99.90;;;;;;5078062;28;20189;-85
2024/01/12 10:23:43;;;;;;;8.37;5.90;;;0.20;99.90;;;;;;5077149;28;20191;-86
2024/01/12 10:26:15;;;;;;;10.13;6.30;;;0.20;99.90;;;;;;5079646;28;20188;-85
2024/01/12 10:28:41;;;;;;;8.13;5.73;;;0.30;99.90;;;;;;5078216;28;20176;-85
2024/01/12 10:31:07;;;;;;;7.87;5.13;;;0.30;99.90;;;;;;5075461;28;20207;-85
2024/01/12 10:33:33;;;;;;;10.60;5.60;;;0.30;99.90;;;;;;5077516;28;20575;-85
2024/01/12 10:36:10;;;;;;;9.80;5.30;;;0.30;99.90;;;;;;5079161;28;20181;-85
2024/01/12 10:38:38;;;;;;;8.60;5.50;;;0.30;99.90;;;;;;5079292;28;20329;-85
2024/01/12 10:41:10;;;;;;;7.73;5.03;;;0.30;99.90;;;;;;5077852;28;20213;-83
2024/01/12 10:43:37;;;;;;;7.13;4.23;;;0.30;99.90;;;;;;5076581;28;20189;-86
2024/01/12 10:46:16;;;;;;;8.00;4.63;;;0.30;99.90;;;;;;5075953;28;20664;-85
2024/01/12 10:48:55;;;;;;;7.20;4.80;;;0.20;99.90;;;;;;5076263;28;20562;-85
2024/01/12 10:51:24;;;;;;;8.67;5.00;;;0.30;99.90;;;;;;5119784;22;20312;-82
2024/01/12 10:54:04;;;;;;;7.63;4.90;;;0.30;99.90;;;;;;5053536;28;20202;-82
2024/01/12 10:56:32;;;;;;;7.83;4.77;;;0.40;99.90;;;;;;5052716;28;20232;-81
2024/01/12 10:58:58;;;;;;;7.40;5.00;;;0.40;99.90;;;;;;5052410;28;20169;-81
2024/01/12 11:01:24;;;;;;;11.10;7.77;;;0.40;99.90;;;;;;5053782;28;20193;-81
2024/01/12 11:03:51;;;;;;;12.60;7.90;;;0.30;99.90;;;;;;5053831;28;20239;-82
2024/01/12 11:06:18;;;;;;;9.20;6.00;;;0.30;99.90;;;;;;5053913;28;20558;-82
2024/01/12 11:08:50;;;;;;;8.53;5.63;;;0.30;99.90;;;;;;5052947;28;20231;-82
2024/01/12 11:11:20;;;;;;;8.37;4.93;;;0.30;99.90;;;;;;5051890;28;20197;-82
2024/01/12 11:13:47;;;;;;;8.10;4.90;;;0.40;99.90;;;;;;5052047;28;20201;-82
2024/01/12 11:16:12;;;;;;;6.77;4.17;;;0.40;99.90;;;;;;5053684;28;20174;-81
2024/01/12 11:18:38;;;;;;;8.03;4.63;;;0.40;99.90;;;;;;5053577;28;20673;-82
2024/01/12 11:21:04;;;;;;;6.20;4.47;;;0.50;99.90;;;;;;5053337;28;20728;-82
2024/01/12 11:23:40;;;;;;;7.00;4.20;;;0.50;99.90;;;;;;5051959;28;20265;-81
2024/01/12 11:26:07;;;;;;;6.37;4.40;;;0.50;99.90;;;;;;5051796;28;20169;-81
2024/01/12 11:28:37;;;;;;;6.87;4.80;;;0.40;99.90;;;;;;5051727;28;20268;-79
2024/01/12 11:31:03;;;;;;;7.63;4.80;;;0.40;99.90;;;;;;5051178;28;20193;-84
2024/01/12 11:33:28;;;;;;;9.20;6.37;;;0.40;99.90;;;;;;5052840;28;20251;-83
2024/01/12 11:35:54;;;;;;;9.57;6.20;;;0.40;99.90;;;;;;5052906;28;20170;-81
2024/01/12 11:38:20;;;;;;;6.93;4.47;;;0.30;99.90;;;;;;5052862;28;20177;-81
2024/01/12 11:40:48;;;;;;;6.43;4.53;;;0.40;99.90;;;;;;5050701;28;20285;-83
2024/01/12 11:43:18;;;;;;;5.97;4.20;;;0.40;99.90;;;;;;5053107;28;20572;-80
2024/01/12 11:45:44;;;;;;;6.03;4.03;;;0.40;99.90;;;;;;5051540;28;20268;-80
2024/01/12 11:48:14;;;;;;;6.93;4.50;;;0.40;99.90;;;;;;5052823;28;20206;-81
2024/01/12 11:50:41;;;;;;;6.10;3.93;;;0.30;99.90;;;;;;5050912;28;20217;-84
2024/01/12 11:53:08;;;;;;;8.57;5.83;;;0.30;99.90;;;;;;5052761;28;20299;-81
2024/01/12 11:55:36;;;;;;;7.60;4.53;;;0.30;99.90;;;;;;5052994;28;20174;-83
2024/01/12 11:58:01;;;;;;;7.63;4.50;;;0.30;99.90;;;;;;5051196;28;20173;-82
2024/01/12 12:00:27;;;;;;;7.37;5.00;;;0.30;99.90;;;;;;5051981;28;20251;-81
2024/01/12 12:02:53;;;;;;;9.73;5.53;;;0.30;99.90;;;;;;5051509;28;20177;-81
2024/01/12 12:05:19;;;;;;;8.10;5.57;;;0.20;99.90;;;;;;5052444;28;20166;-81
2024/01/12 12:07:44;;;;;;;9.77;6.13;;;0.20;99.90;;;;;;5050971;28;20231;-82
2024/01/12 12:10:10;;;;;;;9.53;4.93;;;0.10;99.90;;;;;;5052389;28;20181;-77
2024/01/12 12:12:37;;;;;;;594.93;165.67;;;0.20;99.90;;;;;;5055296;28;20189;-79
2024/01/12 12:15:05;;;;;;;18.50;9.90;;;0.40;99.90;;;;;;5052242;28;20194;-80
2024/01/12 12:17:33;;;;;;;7.97;5.00;;;0.60;99.90;;;;;;5052798;28;20173;-79
2024/01/12 12:19:59;;;;;;;7.50;4.70;;;0.50;99.90;;;;;;5052488;28;20638;-79
2024/01/12 12:22:25;;;;;;;9.73;4.90;;;0.30;99.90;;;;;;5051526;28;20280;-81
2024/01/12 12:24:52;;;;;;;6.57;3.80;;;0.30;99.90;;;;;;5051567;28;20170;-79
2024/01/12 12:27:19;;;;;;;7.93;5.33;;;0.30;99.90;;;;;;5056262;28;20173;-80
2024/01/12 12:29:45;;;;;;;10.43;6.17;;;0.20;99.90;;;;;;5056943;28;20180;-81
2024/01/12 12:32:12;;;;;;;102.03;36.93;;;0.10;99.90;;;;;;5055659;28;20209;-81
2024/01/12 12:34:45;;;;;;;77.43;34.03;;;2.40;99.90;;;;;;5057578;28;20290;-82
2024/01/12 12:37:13;;;;;;;45.37;18.67;;;2.90;99.90;;;;;;5055534;28;20185;-83